Time;durP1;ratioP1;P1;durP2;ratioP2;P2;SDS_P1;SDS_P2;PMS_P1;PMS_P2;Temp;Humidity;BMP_temperature;BMP_pressure;BME280_temperature;BME280_humidity;BME280_pressure;Samples;Min_cycle;Max_cycle;Signal;HPM_P1;HPM_P2
2022/06/23 00:00:32;;;;;;;;;;;;;;;18.70;99.05;101048.00;5250740;28;19955;-79
2022/06/23 00:03:04;;;;;;;;;;;;;;;18.62;100.00;101048.72;5251113;28;19908;-79
2022/06/23 00:05:37;;;;;;;;;;;;;;;18.56;100.00;101047.97;5250374;28;20282;-78
2022/06/23 00:08:11;;;;;;;;;;;;;;;18.53;100.00;101043.94;5250650;28;19982;-78
2022/06/23 00:10:45;;;;;;;;;;;;;;;18.46;100.00;101049.00;5250480;28;19908;-78
2022/06/23 00:13:31;;;;;;;;;;;;;;;18.44;100.00;101040.31;5249278;28;19908;-78
2022/06/23 00:16:03;;;;;;;;;;;;;;;18.36;100.00;101035.53;5250392;28;19912;-78
2022/06/23 00:18:35;;;;;;;;;;;;;;;18.29;100.00;101026.91;5250483;28;19908;-78
2022/06/23 00:21:11;;;;;;;;;;;;;;;18.34;100.00;101037.75;5249089;28;20474;-77
2022/06/23 00:23:44;;;;;;;;;;;;;;;18.37;100.00;101033.63;5248616;28;19915;-78
2022/06/23 00:26:19;;;;;;;;;;;;;;;18.36;100.00;101032.00;5250535;28;19909;-78
2022/06/23 00:28:56;;;;;;;;;;;;;;;18.33;100.00;101027.13;5249914;28;19908;-78
2022/06/23 00:31:29;;;;;;;;;;;;;;;18.31;100.00;101026.63;5248467;28;20324;-77
2022/06/23 00:34:00;;;;;;;;;;;;;;;18.28;100.00;101029.97;5248117;28;19908;-78
2022/06/23 00:36:36;;;;;;;;;;;;;;;18.23;100.00;101028.13;5248336;28;19919;-78
2022/06/23 00:39:18;;;;;;;;;;;;;;;18.20;100.00;101024.06;5247196;28;20026;-78
2022/06/23 00:41:49;;;;;;;;;;;;;;;18.16;100.00;101023.09;5248352;28;19908;-77
2022/06/23 00:44:31;;;;;;;;;;;;;;;18.15;100.00;101021.47;5247647;28;20389;-77
2022/06/23 00:47:04;;;;;;;;;;;;;;;18.16;100.00;101020.34;5248378;28;19954;-78
2022/06/23 00:49:53;;;;;;;;;;;;;;;18.17;100.00;101027.44;5248150;28;19991;-78
2022/06/23 00:52:28;;;;;;;;;;;;;;;18.18;100.00;101031.78;5248003;28;19908;-79
2022/06/23 00:55:02;;;;;;;;;;;;;;;18.22;100.00;101024.59;5248135;28;19915;-78
2022/06/23 00:57:41;;;;;;;;;;;;;;;18.26;100.00;101023.97;5247762;28;19912;-77
2022/06/23 01:00:20;;;;;;;;;;;;;;;18.24;100.00;101029.75;5247775;28;19912;-77
2022/06/23 01:02:54;;;;;;;;;;;;;;;18.25;100.00;101025.09;5247561;28;20301;-78
2022/06/23 01:05:45;;;;;;;;;;;;;;;18.25;100.00;101014.97;5246874;28;19943;-77
2022/06/23 01:08:28;;;;;;;;;;;;;;;18.26;100.00;101013.84;5247415;28;19909;-78
2022/06/23 01:11:03;;;;;;;;;;;;;;;18.27;100.00;101014.66;5246018;28;19923;-78
2022/06/23 01:13:46;;;;;;;;;;;;;;;18.28;100.00;101019.84;5246028;28;19908;-77
2022/06/23 01:16:21;;;;;;;;;;;;;;;18.27;100.00;101017.41;5247622;28;20018;-78
2022/06/23 01:19:12;;;;;;;;;;;;;;;18.28;100.00;101021.75;5246295;28;19962;-77
2022/06/23 01:21:45;;;;;;;;;;;;;;;18.27;100.00;101018.22;5247514;28;20156;-76
2022/06/23 01:24:18;;;;;;;;;;;;;;;18.28;100.00;101024.50;5247332;28;19915;-78
2022/06/23 01:26:57;;;;;;;;;;;;;;;18.30;100.00;101030.47;5247898;28;20300;-78
2022/06/23 01:29:32;;;;;;;;;;;;;;;18.31;100.00;101023.88;5246217;28;19915;-77
2022/06/23 01:32:11;;;;;;;;;;;;;;;18.31;100.00;101023.88;5247267;28;19908;-77
2022/06/23 01:34:41;;;;;;;;;;;;;;;18.28;100.00;101016.28;5246964;28;19923;-79
2022/06/23 01:37:18;;;;;;;;;;;;;;;18.26;100.00;101019.31;5245511;28;19939;-78
2022/06/23 01:39:58;;;;;;;;;;;;;;;18.27;100.00;101022.88;5247085;28;19908;-77
2022/06/23 01:42:49;;;;;;;;;;;;;;;18.28;100.00;101022.56;5245979;28;19912;-78
2022/06/23 01:45:23;;;;;;;;;;;;;;;18.32;100.00;101028.25;5245480;28;19908;-77
2022/06/23 01:47:59;;;;;;;;;;;;;;;18.35;100.00;101019.44;5247051;28;19909;-77
2022/06/23 01:51:01;;;;;;;;;;;;;;;18.38;100.00;101035.25;5247451;28;20326;-77
2022/06/23 01:53:33;;;;;;;;;;;;;;;18.40;100.00;101027.53;5234337;28;20148;-77
2022/06/23 01:56:07;;;;;;;;;;;;;;;18.40;99.58;101033.00;5245864;28;20402;-78
2022/06/23 01:58:47;;;;;;;;;;;;;;;18.41;99.54;101035.44;5247391;28;19995;-77
2022/06/23 02:01:22;;;;;;;;;;;;;;;18.42;99.87;101025.31;5248504;28;20015;-76
2022/06/23 02:03:56;;;;;;;;;;;;;;;18.44;99.25;101017.63;5247414;28;19909;-77
2022/06/23 02:06:29;;;;;;;;;;;;;;;18.44;100.00;101012.16;5247895;28;19908;-77
2022/06/23 02:09:11;;;;;;;;;;;;;;;18.41;100.00;101024.50;5246160;28;19908;-79
2022/06/23 02:11:47;;;;;;;;;;;;;;;18.42;100.00;101025.31;5247265;28;19944;-77
2022/06/23 02:14:36;;;;;;;;;;;;;;;18.43;99.77;101024.19;5247228;28;20010;-77
2022/06/23 02:17:25;;;;;;;;;;;;;;;18.43;100.00;101032.41;5249772;28;19966;-77
2022/06/23 02:19:58;;;;;;;;;;;;;;;18.43;100.00;101021.47;5251765;28;19940;-77
2022/06/23 02:22:34;;;;;;;;;;;;;;;18.44;100.00;101028.56;5251918;28;19909;-77
2022/06/23 02:25:11;;;;;;;;;;;;;;;18.39;100.00;101026.72;5252041;28;19908;-77
2022/06/23 02:27:41;;;;;;;;;;;;;;;18.38;100.00;101022.38;5250925;28;20294;-77
2022/06/23 02:30:20;;;;;;;;;;;;;;;18.34;100.00;101026.81;5251965;28;19915;-78
2022/06/23 02:33:09;;;;;;;;;;;;;;;18.29;100.00;101015.19;5252241;28;19909;-77
2022/06/23 02:35:48;;;;;;;;;;;;;;;18.20;100.00;101024.06;5249946;28;19920;-77
2022/06/23 02:38:35;;;;;;;;;;;;;;;18.14;100.00;101014.38;5252067;28;20343;-77
2022/06/23 02:41:09;;;;;;;;;;;;;;;18.09;100.00;101002.72;5250329;28;19915;-79
2022/06/23 02:43:48;;;;;;;;;;;;;;;18.00;100.00;101008.06;5251186;28;19916;-77
2022/06/23 02:46:25;;;;;;;;;;;;;;;17.92;100.00;101007.94;5250820;28;19915;-77
2022/06/23 02:48:55;;;;;;;;;;;;;;;17.82;100.00;101000.78;5250593;28;20013;-77
2022/06/23 02:51:25;;;;;;;;;;;;;;;17.73;100.00;100999.84;5251189;28;19951;-77
2022/06/23 02:54:04;;;;;;;;;;;;;;;17.61;100.00;100999.50;5250347;28;19908;-77
2022/06/23 02:56:53;;;;;;;;;;;;;;;17.51;100.00;101006.72;5250658;28;20332;-77
2022/06/23 03:02:31;;;;;;;;;;;;;;;17.32;100.00;100984.13;5257669;28;19924;-81
2022/06/23 03:05:29;;;;;;;;;;;;;;;17.25;100.00;100989.16;5262547;28;20452;-81
2022/06/23 03:08:22;;;;;;;;;;;;;;;17.17;100.00;100979.72;5248872;28;19930;-81
2022/06/23 03:10:57;;;;;;;;;;;;;;;17.11;100.00;100982.81;5262132;28;19912;-80
2022/06/23 03:13:31;;;;;;;;;;;;;;;17.06;100.00;100975.50;5260933;28;19920;-81
2022/06/23 03:16:20;;;;;;;;;;;;;;;17.03;100.00;100972.59;5262264;28;19913;-81
2022/06/23 03:19:08;;;;;;;;;;;;;;;16.99;100.00;100977.00;5261939;28;19975;-81
2022/06/23 03:22:04;;;;;;;;;;;;;;;16.94;100.00;100974.34;5260836;28;19908;-81
2022/06/23 03:24:35;;;;;;;;;;;;;;;16.90;100.00;100971.41;5257731;28;19908;-81
2022/06/23 03:27:15;;;;;;;;;;;;;;;16.86;100.00;100970.38;5260380;28;19919;-80
2022/06/23 03:29:48;;;;;;;;;;;;;;;16.84;100.00;100967.13;5262024;28;19908;-79
2022/06/23 03:32:21;;;;;;;;;;;;;;;16.82;100.00;100972.06;5258641;28;19908;-79
2022/06/23 03:35:01;;;;;;;;;;;;;;;16.83;100.00;100981.88;5259296;28;19982;-79
2022/06/23 03:37:40;;;;;;;;;;;;;;;16.83;100.00;100977.22;5259031;28;19919;-80
2022/06/23 03:43:15;;;;;;;;;;;;;;;16.87;100.00;100978.25;5260841;28;19918;-80
2022/06/23 03:45:50;;;;;;;;;;;;;;;16.91;100.00;100973.03;5262112;28;19912;-80
2022/06/23 03:48:26;;;;;;;;;;;;;;;16.92;100.00;100982.03;5258990;28;19909;-80
2022/06/23 03:51:03;;;;;;;;;;;;;;;16.96;100.00;100983.06;5260804;28;19908;-80
2022/06/23 03:53:39;;;;;;;;;;;;;;;17.00;100.00;100978.63;5260938;28;19982;-81
2022/06/23 03:56:14;;;;;;;;;;;;;;;17.02;100.00;100985.41;5258769;28;19912;-80
2022/06/23 03:58:47;;;;;;;;;;;;;;;17.06;100.00;100980.16;5261153;28;19908;-80
2022/06/23 04:01:29;;;;;;;;;;;;;;;17.12;100.00;100970.78;5258128;28;20365;-80
2022/06/23 04:04:04;;;;;;;;;;;;;;;17.21;100.00;100974.47;5259595;28;19967;-80
2022/06/23 04:06:38;;;;;;;;;;;;;;;17.26;100.00;100974.41;5260179;28;19915;-79
2022/06/23 04:09:14;;;;;;;;;;;;;;;17.29;100.00;100968.34;5258636;28;19991;-80
2022/06/23 04:11:47;;;;;;;;;;;;;;;17.29;100.00;100973.81;5256321;28;19951;-80
2022/06/23 04:14:21;;;;;;;;;;;;;;;17.28;100.00;100961.25;5254280;28;19908;-79
2022/06/23 04:16:54;;;;;;;;;;;;;;;17.28;100.00;100969.47;5255275;28;19912;-79
2022/06/23 04:19:28;;;;;;;;;;;;;;;17.31;100.00;100965.31;5256092;28;19909;-79
2022/06/23 04:22:18;;;;;;;;;;;;;;;17.34;100.00;100960.03;5256823;28;19918;-80
2022/06/23 04:24:51;;;;;;;;;;;;;;;17.40;100.00;100958.03;5263836;28;19975;-80
2022/06/23 04:27:25;;;;;;;;;;;;;;;17.49;100.00;100954.34;5264481;28;19909;-81
2022/06/23 04:29:57;;;;;;;;;;;;;;;17.68;100.00;100958.94;5266430;28;19932;-80
2022/06/23 04:32:30;;;;;;;;;;;;;;;17.85;100.00;100961.94;5265098;28;19939;-81
2022/06/23 04:35:03;;;;;;;;;;;;;;;18.04;100.00;100967.28;5261126;28;19958;-82
2022/06/23 04:37:34;;;;;;;;;;;;;;;18.27;100.00;100970.94;5259368;28;19935;-81
2022/06/23 04:40:13;;;;;;;;;;;;;;;18.46;100.00;100957.97;5259224;28;19908;-82
2022/06/23 04:42:47;;;;;;;;;;;;;;;18.70;100.00;100960.47;5259639;28;19919;-82
2022/06/23 04:45:37;;;;;;;;;;;;;;;18.87;100.00;100966.91;5259851;28;19912;-83
2022/06/23 04:48:16;;;;;;;;;;;;;;;19.09;100.00;100970.78;5239675;28;20200;-81
2022/06/23 04:50:53;;;;;;;;;;;;;;;19.35;100.00;100977.25;5255083;28;19972;-81
2022/06/23 04:53:29;;;;;;;;;;;;;;;19.42;100.00;100985.03;5240406;28;19915;-82
2022/06/23 04:56:03;;;;;;;;;;;;;;;19.35;100.00;100979.97;5239926;28;19913;-81
2022/06/23 04:58:36;;;;;;;;;;;;;;;19.32;100.00;100980.63;5256385;28;19909;-82
2022/06/23 05:01:12;;;;;;;;;;;;;;;19.32;100.00;100980.63;5240137;28;19920;-83
2022/06/23 05:03:49;;;;;;;;;;;;;;;19.34;100.00;100983.06;5240184;28;19909;-82
2022/06/23 05:06:25;;;;;;;;;;;;;;;19.39;100.00;100982.91;5241970;28;19909;-83
2022/06/23 05:08:59;;;;;;;;;;;;;;;19.45;100.00;100993.44;5241795;28;19905;-80
2022/06/23 05:11:32;;;;;;;;;;;;;;;19.51;100.00;100996.88;5245028;28;19913;-80
2022/06/23 05:14:06;;;;;;;;;;;;;;;19.53;100.00;100989.16;5246677;28;20299;-81
2022/06/23 05:16:40;;;;;;;;;;;;;;;19.60;100.00;100991.47;5246605;28;19924;-82
2022/06/23 05:19:16;;;;;;;;;;;;;;;19.66;100.00;100992.94;5247086;28;19912;-81
2022/06/23 05:21:50;;;;;;;;;;;;;;;19.69;100.00;100986.84;5254415;28;19912;-81
2022/06/23 05:24:27;;;;;;;;;;;;;;;19.68;100.00;100991.50;5258501;28;19943;-80
2022/06/23 05:26:59;;;;;;;;;;;;;;;19.69;100.00;100995.06;5250993;28;19924;-81
2022/06/23 05:29:41;;;;;;;;;;;;;;;19.77;100.00;100994.28;5238497;28;19915;-81
2022/06/23 05:32:21;;;;;;;;;;;;;;;19.90;100.00;100993.41;5239082;28;19908;-81
2022/06/23 05:35:03;;;;;;;;;;;;;;;19.91;100.00;100986.81;5240590;28;20291;-82
2022/06/23 05:37:42;;;;;;;;;;;;;;;19.98;100.00;100983.59;5256176;28;19935;-80
2022/06/23 05:40:39;;;;;;;;;;;;;;;20.11;100.00;100985.44;5238750;28;19919;-80
2022/06/23 05:43:11;;;;;;;;;;;;;;;20.21;100.00;100985.94;5232299;28;19957;-81
2022/06/23 05:45:44;;;;;;;;;;;;;;;20.29;100.00;100987.09;5235714;28;19976;-81
2022/06/23 05:48:16;;;;;;;;;;;;;;;20.35;100.00;100994.06;5238188;28;19916;-82
2022/06/23 05:50:50;;;;;;;;;;;;;;;20.46;100.00;100989.13;5236819;28;19960;-82
2022/06/23 05:53:30;;;;;;;;;;;;;;;20.54;100.00;100991.06;5237788;28;19912;-82
2022/06/23 05:56:07;;;;;;;;;;;;;;;20.67;100.00;100994.81;5237532;28;19912;-81
2022/06/23 05:58:46;;;;;;;;;;;;;;;20.81;100.00;100979.78;5236436;28;19912;-81
2022/06/23 06:01:24;;;;;;;;;;;;;;;20.93;100.00;100989.34;5236113;28;20250;-83
2022/06/23 06:03:58;;;;;;;;;;;;;;;20.73;100.00;100928.47;5238524;28;19909;-82
2022/06/23 06:06:29;;;;;;;;;;;;;;;21.21;100.00;100993.41;5235727;28;19916;-82
2022/06/23 06:11:53;;;;;;;;;;;;;;;21.67;100.00;100983.63;5238147;28;19971;-82
2022/06/23 06:14:26;;;;;;;;;;;;;;;21.88;100.00;100981.81;5252904;28;19948;-83
2022/06/23 06:16:57;;;;;;;;;;;;;;;22.14;100.00;100977.03;5237489;28;19912;-82
2022/06/23 06:19:29;;;;;;;;;;;;;;;22.42;100.00;100976.56;5237813;28;20282;-83
2022/06/23 06:22:10;;;;;;;;;;;;;;;22.82;100.00;100979.69;5236203;28;19987;-82
2022/06/23 06:24:43;;;;;;;;;;;;;;;23.22;100.00;100975.31;5238187;28;19909;-81
2022/06/23 06:27:13;;;;;;;;;;;;;;;23.45;100.00;100970.22;5237543;28;19980;-82
2022/06/23 06:29:44;;;;;;;;;;;;;;;23.79;100.00;100976.53;5237219;28;19931;-82
2022/06/23 06:32:33;;;;;;;;;;;;;;;24.08;100.00;100973.59;5237159;28;19908;-82
2022/06/23 06:35:07;;;;;;;;;;;;;;;24.24;100.00;100973.72;5235728;28;19998;-82
2022/06/23 06:37:39;;;;;;;;;;;;;;;24.42;100.00;100974.31;5237374;28;19978;-82
2022/06/23 06:40:09;;;;;;;;;;;;;;;24.58;100.00;100973.22;5237316;28;20345;-82
2022/06/23 06:42:45;;;;;;;;;;;;;;;24.85;100.00;100970.88;5236747;28;20058;-83
2022/06/23 06:45:18;;;;;;;;;;;;;;;25.08;100.00;100976.72;5236562;28;19909;-84
2022/06/23 06:47:48;;;;;;;;;;;;;;;25.33;100.00;100978.22;5237920;28;20362;-83
2022/06/23 06:50:18;;;;;;;;;;;;;;;25.42;100.00;100978.84;5244348;28;19955;-83
2022/06/23 06:52:49;;;;;;;;;;;;;;;25.60;100.00;100990.41;5240226;28;19908;-84
2022/06/23 06:55:26;;;;;;;;;;;;;;;25.66;100.00;100979.94;5236017;28;20435;-85
2022/06/23 06:58:02;;;;;;;;;;;;;;;25.79;100.00;100985.00;5234511;28;19912;-83
2022/06/23 07:00:35;;;;;;;;;;;;;;;25.99;100.00;100985.91;5234652;28;19939;-84
2022/06/23 07:03:06;;;;;;;;;;;;;;;25.93;100.00;100983.78;5237787;28;19920;-84
2022/06/23 07:05:49;;;;;;;;;;;;;;;26.04;100.00;100980.09;5237116;28;20368;-86
2022/06/23 07:08:22;;;;;;;;;;;;;;;26.26;100.00;100980.66;5239929;28;19908;-83
2022/06/23 07:11:11;;;;;;;;;;;;;;;26.43;100.00;100975.53;5240096;28;19916;-85
2022/06/23 07:13:48;;;;;;;;;;;;;;;26.45;100.00;100973.22;5238783;28;19962;-82
2022/06/23 07:16:28;;;;;;;;;;;;;;;26.39;100.00;100977.41;5239604;28;19927;-85
2022/06/23 07:19:18;;;;;;;;;;;;;;;26.50;100.00;100974.91;5238565;28;19919;-84
2022/06/23 07:21:51;;;;;;;;;;;;;;;26.71;100.00;100983.69;5240334;28;19908;-85
2022/06/23 07:24:32;;;;;;;;;;;;;;;26.92;100.00;100975.81;5250379;28;19908;-84
2022/06/23 07:27:05;;;;;;;;;;;;;;;27.09;100.00;100977.41;5243419;28;20402;-83
2022/06/23 07:29:39;;;;;;;;;;;;;;;27.31;100.00;100975.06;5239427;28;19928;-84
2022/06/23 07:32:41;;;;;;;;;;;;;;;27.35;100.00;100984.25;5238340;28;19909;-84
2022/06/23 07:35:34;;;;;;;;;;;;;;;27.39;100.00;100971.25;5183670;28;19915;-84
2022/06/23 07:38:10;;;;;;;;;;;;;;;27.51;100.00;100971.88;5237452;28;19913;-82
2022/06/23 07:40:48;;;;;;;;;;;;;;;27.59;100.00;100981.16;5238767;28;19936;-83
2022/06/23 07:43:24;;;;;;;;;;;;;;;27.65;100.00;100982.47;5238981;28;19951;-83
2022/06/23 07:45:56;;;;;;;;;;;;;;;27.66;100.00;100972.97;5239133;28;19912;-83
2022/06/23 07:48:29;;;;;;;;;;;;;;;27.87;100.00;100978.09;5238892;28;19912;-83
2022/06/23 07:51:01;;;;;;;;;;;;;;;28.11;100.00;100985.22;5238615;28;19944;-84
2022/06/23 07:53:33;;;;;;;;;;;;;;;28.32;100.00;100987.56;5236810;28;19935;-84
2022/06/23 07:56:05;;;;;;;;;;;;;;;28.34;100.00;100976.88;5238984;28;19988;-83
2022/06/23 07:58:36;;;;;;;;;;;;;;;28.39;100.00;100971.00;5239038;28;19962;-82
2022/06/23 08:01:11;;;;;;;;;;;;;;;28.54;100.00;100978.41;5238452;28;19983;-82
2022/06/23 08:03:45;;;;;;;;;;;;;;;28.79;100.00;100984.28;5237097;28;20385;-83
2022/06/23 08:06:18;;;;;;;;;;;;;;;28.71;100.00;100983.38;5237804;28;20000;-83
2022/06/23 08:08:51;;;;;;;;;;;;;;;28.78;100.00;100991.84;5238531;28;19935;-83
2022/06/23 08:14:19;;;;;;;;;;;;;;;28.96;100.00;100994.06;5241189;28;19982;-82
2022/06/23 08:16:52;;;;;;;;;;;;;;;29.16;100.00;100992.75;5255255;28;19912;-83
2022/06/23 08:19:32;;;;;;;;;;;;;;;29.28;100.00;100992.47;5263296;28;20401;-83
2022/06/23 08:22:02;;;;;;;;;;;;;;;29.32;100.00;100989.75;5266324;28;19958;-82
2022/06/23 08:24:36;;;;;;;;;;;;;;;29.11;100.00;100990.28;5265895;28;20358;-83
2022/06/23 08:27:09;;;;;;;;;;;;;;;28.99;100.00;100991.34;5259689;28;19938;-83
2022/06/23 08:29:45;;;;;;;;;;;;;;;28.80;100.00;100989.47;5259613;28;19969;-83
2022/06/23 08:32:15;;;;;;;;;;;;;;;28.56;100.00;100982.41;5260259;28;19908;-83
2022/06/23 08:34:51;;;;;;;;;;;;;;;28.56;100.00;100978.81;5262045;28;19931;-83
2022/06/23 08:37:23;;;;;;;;;;;;;;;28.56;100.00;100982.41;5260964;28;19912;-83
2022/06/23 08:39:53;;;;;;;;;;;;;;;28.58;100.00;100984.00;5260718;28;19908;-81
2022/06/23 08:42:26;;;;;;;;;;;;;;;28.67;100.00;100979.75;5260319;28;19930;-82
2022/06/23 08:44:56;;;;;;;;;;;;;;;28.72;100.00;100975.84;5260923;28;19966;-82
2022/06/23 08:47:27;;;;;;;;;;;;;;;28.96;100.00;100977.38;5260840;28;19908;-81
2022/06/23 08:50:26;;;;;;;;;;;;;;;29.06;100.00;100987.84;5261988;28;19919;-83
2022/06/23 08:53:04;;;;;;;;;;;;;;;29.35;100.00;100994.53;5255820;28;20330;-81
2022/06/23 08:55:40;;;;;;;;;;;;;;;29.43;100.00;100990.69;5249311;28;19918;-80
2022/06/23 08:58:29;;;;;;;;;;;;;;;29.70;100.00;100989.38;5247808;28;19910;-82
2022/06/23 09:01:05;;;;;;;;;;;;;;;30.43;100.00;100989.59;5261524;23;19920;-64
2022/06/23 09:03:54;;;;;;;;;;;;;;;30.48;100.00;100990.03;5228794;28;19920;-63
2022/06/23 09:06:32;;;;;;;;;;;;;;;30.13;100.00;100995.34;5253909;28;20406;-63
2022/06/23 09:09:02;;;;;;;;;;;;;;;29.67;100.00;101000.47;5261792;28;20399;-63
2022/06/23 09:11:51;;;;;;;;;;;;;;;29.43;100.00;100993.47;5261474;28;19912;-63
2022/06/23 09:14:25;;;;;;;;;;;;;;;29.46;100.00;100987.94;5261006;28;19962;-63
2022/06/23 09:17:07;;;;;;;;;;;;;;;29.77;100.00;100986.66;5260994;28;19935;-63
2022/06/23 09:19:53;;;;;;;;;;;;;;;29.84;100.00;100983.13;5245834;28;20423;-62
2022/06/23 09:22:53;;;;;;;;;;;;;;;29.53;100.00;100984.44;5261785;28;19909;-63
2022/06/23 09:25:29;;;;;;;;;;;;;;;29.67;100.00;100978.22;5207811;28;19961;-63
2022/06/23 09:28:05;;;;;;;;;;;;;;;29.85;100.00;100968.03;5261541;28;19912;-63
2022/06/23 09:30:51;;;;;;;;;;;;;;;29.80;100.00;100969.19;5261653;28;19909;-63
2022/06/23 09:33:36;;;;;;;;;;;;;;;29.60;100.00;100961.44;5260414;28;19920;-63
2022/06/23 09:36:09;;;;;;;;;;;;;;;29.94;100.00;100965.72;5261287;28;20272;-63
2022/06/23 09:38:51;;;;;;;;;;;;;;;30.20;100.00;100968.34;5261606;28;19953;-63
2022/06/23 09:41:40;;;;;;;;;;;;;;;30.40;100.00;100959.72;5260340;28;19932;-63
2022/06/23 09:44:21;;;;;;;;;;;;;;;30.23;100.00;100961.22;5260470;28;20357;-63
2022/06/23 09:47:21;;;;;;;;;;;;;;;29.72;99.55;100959.19;5261414;28;20276;-63
2022/06/23 09:49:57;;;;;;;;;;;;;;;29.22;100.00;100963.38;5208258;28;19912;-63
2022/06/23 10:05:03;;;;;;;;;;;;;;;29.18;100.00;100966.13;5271377;28;19964;-94
2022/06/23 10:07:52;;;;;;;;;;;;;;;29.33;100.00;100961.53;5273784;28;19916;-91
2022/06/23 10:10:31;;;;;;;;;;;;;;;29.24;100.00;100963.81;5271179;28;19979;-92
2022/06/23 10:13:10;;;;;;;;;;;;;;;29.22;100.00;100966.16;5261644;28;19934;-92
2022/06/23 10:16:04;;;;;;;;;;;;;;;29.15;100.00;100969.69;5277786;28;19954;-92
2022/06/23 10:18:42;;;;;;;;;;;;;;;29.17;100.00;100964.53;5250337;28;19919;-91
2022/06/23 10:21:22;;;;;;;;;;;;;;;29.63;100.00;100969.03;5254988;28;20381;-93
2022/06/23 10:24:09;;;;;;;;;;;;;;;29.91;100.00;100974.84;5254014;28;19908;-92
2022/06/23 10:26:54;;;;;;;;;;;;;;;29.92;98.82;100968.09;5253707;28;19912;-92
2022/06/23 10:29:32;;;;;;;;;;;;;;;29.86;100.00;100969.63;5238944;28;19920;-93
2022/06/23 10:32:15;;;;;;;;;;;;;;;30.28;99.05;100969.22;5271924;28;19958;-92
2022/06/23 10:35:06;;;;;;;;;;;;;;;30.64;99.56;100970.25;5256961;28;19936;-92
2022/06/23 10:37:40;;;;;;;;;;;;;;;30.52;98.91;100973.34;5275018;28;20015;-92
2022/06/23 10:40:25;;;;;;;;;;;;;;;30.80;99.70;100953.19;5281172;28;20011;-91
2022/06/23 10:42:56;;;;;;;;;;;;;;;31.17;97.74;100961.34;5260986;28;20313;-91
2022/06/23 10:45:26;;;;;;;;;;;;;;;31.63;95.16;100960.63;5272809;28;19915;-92
2022/06/23 10:48:15;;;;;;;;;;;;;;;31.65;91.59;100958.25;5256139;28;19970;-92
2022/06/23 10:50:59;;;;;;;;;;;;;;;31.70;89.55;100944.72;5270903;28;20003;-91
2022/06/23 10:54:05;;;;;;;;;;;;;;;31.64;88.92;100937.09;5254123;28;19915;-92
2022/06/23 10:56:57;;;;;;;;;;;;;;;31.29;90.00;100938.66;5238254;28;19912;-93
2022/06/23 10:59:30;;;;;;;;;;;;;;;31.33;90.60;100944.25;5253547;28;19918;-92
2022/06/23 11:02:13;;;;;;;;;;;;;;;31.44;89.67;100939.50;5255325;28;20040;-93
2022/06/23 11:04:43;;;;;;;;;;;;;;;31.51;88.48;100933.91;5270991;28;19909;-91
2022/06/23 11:07:37;;;;;;;;;;;;;;;31.26;86.71;100866.88;5270143;28;19913;-92
2022/06/23 11:10:11;;;;;;;;;;;;;;;31.85;86.22;100923.97;5253298;28;19908;-92
2022/06/23 11:13:01;;;;;;;;;;;;;;;31.88;85.18;100912.00;5270502;28;20328;-92
2022/06/23 11:15:50;;;;;;;;;;;;;;;31.98;86.76;100907.63;5253088;28;19915;-92
2022/06/23 11:18:21;;;;;;;;;;;;;;;31.95;82.08;100905.63;5269803;28;19912;-92
2022/06/23 11:21:03;;;;;;;;;;;;;;;32.00;83.12;100905.22;5270335;28;19923;-90
2022/06/23 11:23:34;;;;;;;;;;;;;;;32.37;80.74;100913.13;5252788;28;20243;-91
2022/06/23 11:26:14;;;;;;;;;;;;;;;32.43;80.90;100911.53;5253220;28;19935;-92
2022/06/23 11:28:54;;;;;;;;;;;;;;;32.56;77.74;100903.50;5252835;28;19912;-92
2022/06/23 11:31:42;;;;;;;;;;;;;;;32.40;79.18;100908.75;5270265;28;20147;-92
2022/06/23 11:34:22;;;;;;;;;;;;;;;32.25;80.57;100899.59;5256613;28;19919;-93
2022/06/23 11:36:53;;;;;;;;;;;;;;;32.48;81.01;100896.34;5257487;28;19912;-92
2022/06/23 11:39:29;;;;;;;;;;;;;;;32.75;79.14;100897.47;5275187;28;19919;-92
2022/06/23 11:42:02;;;;;;;;;;;;;;;33.05;80.12;100896.91;5283755;28;19908;-92
2022/06/23 11:44:36;;;;;;;;;;;;;;;32.88;79.51;100890.22;5275735;28;19915;-92
2022/06/23 11:47:16;;;;;;;;;;;;;;;32.46;75.59;100896.75;5260639;28;19981;-92
2022/06/23 11:49:58;;;;;;;;;;;;;;;32.35;76.76;100895.97;5257602;28;20003;-92
2022/06/23 11:52:40;;;;;;;;;;;;;;;32.09;75.92;100897.19;5253974;28;20260;-92
2022/06/23 11:55:10;;;;;;;;;;;;;;;31.81;75.88;100892.44;5254350;28;19908;-91
2022/06/23 11:57:56;;;;;;;;;;;;;;;31.56;77.00;100892.44;5276522;28;19922;-93
2022/06/23 12:00:40;;;;;;;;;;;;;;;31.77;77.53;100885.25;5275793;28;20404;-93
2022/06/23 12:03:29;;;;;;;;;;;;;;;32.13;78.88;100884.03;5259550;28;19919;-91
2022/06/23 12:06:05;;;;;;;;;;;;;;;32.35;77.08;100887.59;5276091;28;20060;-93
2022/06/23 12:08:39;;;;;;;;;;;;;;;32.75;76.83;100891.84;5277106;28;19915;-93
2022/06/23 12:11:09;;;;;;;;;;;;;;;32.97;76.28;100883.34;5272376;28;20016;-93
2022/06/23 12:13:40;;;;;;;;;;;;;;;33.00;73.91;100883.34;5255094;28;19916;-90
2022/06/23 12:16:10;;;;;;;;;;;;;;;32.70;75.87;100889.44;5274405;28;19916;-90
2022/06/23 12:18:44;;;;;;;;;;;;;;;32.41;74.06;100879.59;5256105;28;19915;-91
2022/06/23 12:21:33;;;;;;;;;;;;;;;32.21;73.70;100868.88;5255830;28;20324;-91
2022/06/23 12:24:11;;;;;;;;;;;;;;;32.75;74.14;100877.88;5271705;28;20015;-91
2022/06/23 12:26:54;;;;;;;;;;;;;;;33.18;75.11;100877.66;5273881;28;19943;-91
2022/06/23 12:29:29;;;;;;;;;;;;;;;33.62;73.93;100868.53;5272719;28;19946;-92
2022/06/23 12:32:10;;;;;;;;;;;;;;;33.80;68.29;100859.97;5256580;28;20325;-92
2022/06/23 12:34:47;;;;;;;;;;;;;;;33.93;67.36;100865.84;5255341;28;19908;-92
2022/06/23 12:37:23;;;;;;;;;;;;;;;33.97;64.55;100863.81;5272133;28;19919;-92
2022/06/23 12:39:57;;;;;;;;;;;;;;;33.33;63.80;100862.34;5274108;28;20010;-92
2022/06/23 12:42:39;;;;;;;;;;;;;;;33.22;66.77;100856.78;5272821;28;19980;-92
2022/06/23 12:45:10;;;;;;;;;;;;;;;33.33;67.77;100862.34;5256754;28;19908;-91
2022/06/23 12:47:59;;;;;;;;;;;;;;;33.25;67.43;100857.97;5274439;28;19930;-92
2022/06/23 12:50:47;;;;;;;;;;;;;;;33.50;66.76;100850.22;5272337;28;19907;-92
2022/06/23 12:53:35;;;;;;;;;;;;;;;33.57;66.91;100851.34;5274550;28;19908;-93
2022/06/23 12:56:23;;;;;;;;;;;;;;;33.57;65.10;100848.56;5274463;28;19922;-92
2022/06/23 12:59:02;;;;;;;;;;;;;;;33.16;66.58;100857.66;5273863;28;19916;-92
2022/06/23 13:01:46;;;;;;;;;;;;;;;32.84;64.55;100850.25;5255198;28;19967;-93
2022/06/23 13:04:22;;;;;;;;;;;;;;;32.88;61.55;100845.44;5256742;28;19908;-92
2022/06/23 13:06:58;;;;;;;;;;;;;;;32.92;63.65;100839.03;5256947;28;19915;-92
2022/06/23 13:09:37;;;;;;;;;;;;;;;33.35;63.62;100833.94;5273929;28;19915;-92
2022/06/23 13:12:10;;;;;;;;;;;;;;;33.54;61.00;100833.38;5257705;28;20045;-92
2022/06/23 13:14:43;;;;;;;;;;;;;;;33.93;60.65;100833.03;5259615;28;19908;-92
2022/06/23 13:17:26;;;;;;;;;;;;;;;34.33;59.87;100833.41;5280801;28;19983;-92
2022/06/23 13:20:06;;;;;;;;;;;;;;;34.87;60.82;100831.50;5260980;28;19961;-92
2022/06/23 13:22:50;;;;;;;;;;;;;;;35.03;60.62;100830.88;5260143;28;19938;-92
2022/06/23 13:25:25;;;;;;;;;;;;;;;34.93;61.32;100824.22;5258832;28;19908;-92
2022/06/23 13:28:01;;;;;;;;;;;;;;;34.90;60.25;100824.28;5257122;28;19919;-92
2022/06/23 13:30:39;;;;;;;;;;;;;;;34.90;62.70;100829.88;5255611;28;19908;-93
2022/06/23 13:33:22;;;;;;;;;;;;;;;35.08;60.54;100816.34;5256904;28;19908;-93
2022/06/23 13:36:01;;;;;;;;;;;;;;;35.04;60.28;100815.63;5256578;28;20330;-94
2022/06/23 13:38:43;;;;;;;;;;;;;;;35.66;59.37;100812.19;5256141;28;19931;-93
2022/06/23 13:41:34;;;;;;;;;;;;;;;35.50;59.48;100810.06;5256687;28;19912;-93
2022/06/23 13:44:19;;;;;;;;;;;;;;;36.15;55.18;100812.47;5277622;28;19912;-91
2022/06/23 13:47:09;;;;;;;;;;;;;;;36.71;55.36;100816.09;5279689;28;19919;-93
2022/06/23 13:49:59;;;;;;;;;;;;;;;37.98;52.42;100802.91;5270906;28;19919;-92